Time;durP1;ratioP1;P1;durP2;ratioP2;P2;SDS_P1;SDS_P2;PMS_P1;PMS_P2;Temp;Humidity;BMP_temperature;BMP_pressure;BME280_temperature;BME280_humidity;BME280_pressure;Samples;Min_cycle;Max_cycle;Signal;HPM_P1;HPM_P2
2023/09/24 00:00:55;;;;;;;6.20;2.55;;;12.10;99.90;;;;;;4802769;29;20061;-80
2023/09/24 00:03:21;;;;;;;5.63;1.70;;;12.10;99.90;;;;;;4806487;29;20447;-81
2023/09/24 00:05:47;;;;;;;5.15;2.00;;;13.60;99.90;;;;;;4833416;29;20042;-80
2023/09/24 00:08:12;;;;;;;5.43;1.95;;;12.10;99.90;;;;;;4799936;29;20062;-80
2023/09/24 00:10:38;;;;;;;4.13;1.75;;;12.10;99.90;;;;;;4842859;29;20062;-80
2023/09/24 00:13:04;;;;;;;2.70;1.70;;;12.00;99.90;;;;;;4835142;29;20130;-80
2023/09/24 00:15:32;;;;;;;6.28;2.05;;;12.00;99.90;;;;;;4820979;29;20057;-80
2023/09/24 00:17:59;;;;;;;3.55;2.15;;;12.00;99.90;;;;;;4831618;29;20046;-81
2023/09/24 00:20:25;;;;;;;6.32;1.92;;;11.90;99.90;;;;;;4798806;29;20054;-80
2023/09/24 00:22:51;;;;;;;7.70;2.80;;;11.90;99.90;;;;;;4829176;29;20053;-79
2023/09/24 00:25:17;;;;;;;2.85;1.75;;;13.70;99.90;;;;;;4815933;29;20050;-78
2023/09/24 00:27:43;;;;;;;3.35;1.98;;;11.90;99.90;;;;;;4798302;29;20046;-79
2023/09/24 00:30:09;;;;;;;6.72;2.22;;;11.90;99.90;;;;;;4799408;29;20531;-79
2023/09/24 00:32:35;;;;;;;2.92;1.67;;;11.80;99.90;;;;;;4803943;29;20407;-79
2023/09/24 00:35:02;;;;;;;2.15;1.98;;;11.80;99.90;;;;;;4828340;29;20047;-79
2023/09/24 00:37:27;;;;;;;4.82;2.33;;;12.90;99.90;;;;;;4829966;29;20046;-79
2023/09/24 00:39:53;;;;;;;4.15;2.13;;;11.80;99.90;;;;;;4824286;29;20057;-77
2023/09/24 00:42:19;;;;;;;3.20;2.17;;;11.70;99.90;;;;;;4803268;29;20049;-78
2023/09/24 00:44:44;;;;;;;3.45;1.67;;;11.70;99.90;;;;;;4825668;29;20035;-78
2023/09/24 00:47:11;;;;;;;7.13;2.22;;;11.60;99.90;;;;;;4824814;29;20496;-78
2023/09/24 00:49:38;;;;;;;6.80;2.15;;;11.60;99.90;;;;;;4832819;29;20045;-79
2023/09/24 00:52:04;;;;;;;4.60;2.28;;;11.70;99.90;;;;;;4829090;29;20050;-78
2023/09/24 00:54:30;;;;;;;4.35;3.20;;;11.60;99.90;;;;;;4817023;29;20042;-76
2023/09/24 00:56:58;;;;;;;8.27;2.20;;;11.70;99.90;;;;;;4791996;29;20047;-78
2023/09/24 00:59:25;;;;;;;6.70;2.13;;;12.50;99.90;;;;;;4794087;29;20043;-78
2023/09/24 01:01:51;;;;;;;7.13;3.08;;;11.60;99.90;;;;;;4814621;29;20110;-77
2023/09/24 01:04:19;;;;;;;7.72;2.22;;;12.70;99.90;;;;;;4829046;29;20074;-78
2023/09/24 01:06:44;;;;;;;5.18;2.70;;;11.60;99.90;;;;;;4829878;29;20112;-78
2023/09/24 01:09:11;;;;;;;8.88;2.50;;;11.60;99.90;;;;;;4822982;29;20046;-77
2023/09/24 01:11:38;;;;;;;6.55;2.47;;;11.60;99.90;;;;;;4825033;29;20074;-78
2023/09/24 01:14:04;;;;;;;5.32;2.13;;;11.50;99.90;;;;;;4833441;29;20470;-79
2023/09/24 01:16:33;;;;;;;4.50;2.00;;;11.70;99.90;;;;;;4816902;29;20050;-78
2023/09/24 01:18:59;;;;;;;3.85;1.98;;;11.50;99.90;;;;;;4800654;29;20056;-77
2023/09/24 01:21:27;;;;;;;4.68;1.90;;;11.90;99.90;;;;;;4848236;29;20141;-78
2023/09/24 01:23:54;;;;;;;7.05;2.90;;;11.50;99.90;;;;;;4828161;29;20055;-77
2023/09/24 01:26:22;;;;;;;6.22;2.30;;;11.50;99.90;;;;;;4830595;29;20047;-76
2023/09/24 01:28:48;;;;;;;2.83;2.00;;;12.10;99.90;;;;;;4802121;29;20084;-78
2023/09/24 01:31:15;;;;;;;5.60;2.13;;;11.50;99.90;;;;;;4817310;29;20115;-78
2023/09/24 01:33:41;;;;;;;2.92;1.88;;;11.80;99.90;;;;;;4825235;29;20084;-78
2023/09/24 01:36:10;;;;;;;1.95;1.77;;;11.50;99.90;;;;;;4801674;29;20476;-78
2023/09/24 01:38:40;;;;;;;6.63;2.40;;;11.40;99.90;;;;;;4832260;29;20038;-77
2023/09/24 01:41:09;;;;;;;5.78;2.08;;;11.40;99.90;;;;;;4830970;29;20654;-78
2023/09/24 01:43:39;;;;;;;3.45;1.60;;;11.40;99.90;;;;;;4815934;29;20058;-78
2023/09/24 01:46:08;;;;;;;4.78;1.73;;;11.50;99.90;;;;;;4841429;29;20112;-78
2023/09/24 01:48:35;;;;;;;3.90;1.40;;;11.50;99.90;;;;;;4844434;29;20076;-78
2023/09/24 01:51:08;;;;;;;4.30;1.45;;;11.50;99.90;;;;;;4836978;29;20057;-78
2023/09/24 01:53:35;;;;;;;3.33;1.52;;;11.40;99.90;;;;;;4823956;29;20495;-77
2023/09/24 01:56:04;;;;;;;3.78;1.23;;;11.40;99.90;;;;;;4815816;29;20081;-78
2023/09/24 01:58:30;;;;;;;4.72;1.75;;;11.40;99.90;;;;;;4844969;29;20462;-78
2023/09/24 02:00:56;;;;;;;5.95;2.03;;;11.40;99.90;;;;;;4800786;29;20099;-76
2023/09/24 02:03:21;;;;;;;4.68;1.48;;;11.30;99.90;;;;;;4830699;29;20043;-77
2023/09/24 02:05:47;;;;;;;3.25;1.52;;;11.30;99.90;;;;;;4816601;29;20083;-78
2023/09/24 02:08:14;;;;;;;2.95;1.70;;;12.20;99.90;;;;;;4817587;29;20074;-78
2023/09/24 02:10:41;;;;;;;4.78;1.42;;;11.30;99.90;;;;;;4834234;29;20441;-78
2023/09/24 02:13:08;;;;;;;2.65;1.42;;;11.30;99.90;;;;;;4819338;29;20050;-77
2023/09/24 02:15:34;;;;;;;3.97;1.27;;;11.30;99.90;;;;;;4834192;29;20088;-78
2023/09/24 02:18:00;;;;;;;4.18;1.77;;;11.20;99.90;;;;;;4817192;29;20050;-78
2023/09/24 02:22:59;;;;;;;3.78;1.63;;;11.20;99.90;;;;;;4818422;29;20054;-77
2023/09/24 02:25:37;;;;;;;2.47;1.30;;;11.20;99.90;;;;;;4803911;29;20574;-78
2023/09/24 02:28:04;;;;;;;2.92;1.65;;;11.20;99.90;;;;;;4804605;29;20082;-78
2023/09/24 02:30:34;;;;;;;3.10;1.38;;;11.00;99.90;;;;;;4834736;29;20057;-78
2023/09/24 02:33:02;;;;;;;3.33;1.70;;;11.20;99.90;;;;;;4804909;29;20054;-78
2023/09/24 02:35:28;;;;;;;3.95;1.52;;;11.20;99.90;;;;;;4828871;29;20062;-78
2023/09/24 02:37:54;;;;;;;4.57;1.42;;;11.20;99.90;;;;;;4834353;29;20054;-78
2023/09/24 02:40:22;;;;;;;3.20;1.10;;;11.20;99.90;;;;;;4835093;29;20056;-77
2023/09/24 02:42:51;;;;;;;3.78;1.88;;;11.20;99.90;;;;;;4850583;29;20038;-77
2023/09/24 02:45:17;;;;;;;5.50;1.50;;;11.20;99.90;;;;;;4797923;29;20130;-77
2023/09/24 02:47:53;;;;;;;5.10;1.40;;;11.50;99.90;;;;;;4829232;29;20051;-79
2023/09/24 02:50:23;;;;;;;3.25;1.50;;;11.20;99.90;;;;;;4812073;29;20046;-78
2023/09/24 02:52:53;;;;;;;3.95;1.63;;;11.20;99.90;;;;;;4835563;29;20043;-78
2023/09/24 02:55:19;;;;;;;2.05;1.50;;;12.60;99.90;;;;;;4828402;29;20042;-78
2023/09/24 02:57:52;;;;;;;1.80;1.38;;;11.30;99.90;;;;;;4806304;29;20046;-79
2023/09/24 03:00:26;;;;;;;3.42;1.83;;;11.30;99.90;;;;;;4833786;29;20057;-79
2023/09/24 03:02:59;;;;;;;4.47;1.80;;;11.20;99.90;;;;;;4831379;29;20078;-79
2023/09/24 03:05:26;;;;;;;6.03;2.15;;;11.30;99.90;;;;;;4841378;29;20059;-79
2023/09/24 03:07:53;;;;;;;7.57;1.90;;;11.30;99.90;;;;;;4827850;29;20043;-78
2023/09/24 03:10:19;;;;;;;4.65;2.10;;;11.30;99.90;;;;;;4796798;29;20103;-79
2023/09/24 03:12:46;;;;;;;3.25;1.95;;;11.20;99.90;;;;;;4825204;29;20415;-79
2023/09/24 03:15:12;;;;;;;2.72;1.88;;;11.30;99.90;;;;;;4828890;29;20042;-78
2023/09/24 03:17:39;;;;;;;4.20;2.10;;;11.30;99.90;;;;;;4803125;29;20876;-78
2023/09/24 03:20:15;;;;;;;5.13;2.63;;;11.30;99.90;;;;;;4820151;29;20046;-78
2023/09/24 03:22:52;;;;;;;2.58;2.38;;;11.30;99.90;;;;;;4828124;29;20038;-78
2023/09/24 03:25:19;;;;;;;8.45;3.00;;;11.30;99.90;;;;;;4835247;29;20055;-77
2023/09/24 03:27:45;;;;;;;5.90;2.55;;;11.30;99.90;;;;;;4817085;29;20042;-77
2023/09/24 03:30:16;;;;;;;4.40;2.70;;;11.30;99.90;;;;;;4826859;29;20138;-77
2023/09/24 03:32:47;;;;;;;3.42;2.53;;;11.20;99.90;;;;;;4803797;29;20129;-78
2023/09/24 03:35:13;;;;;;;8.65;2.65;;;12.80;99.90;;;;;;4810378;29;20501;-77
2023/09/24 03:37:43;;;;;;;3.03;2.50;;;11.30;99.90;;;;;;4810856;29;20038;-77
2023/09/24 03:40:21;;;;;;;2.70;2.47;;;11.80;99.90;;;;;;4802077;29;20137;-77
2023/09/24 03:42:47;;;;;;;7.68;2.67;;;12.20;99.90;;;;;;4826472;29;20035;-77
2023/09/24 03:45:15;;;;;;;5.80;3.20;;;11.20;99.90;;;;;;4825477;29;20195;-78
2023/09/24 03:47:42;;;;;;;4.30;2.78;;;11.20;99.90;;;;;;4801214;29;20047;-78
2023/09/24 03:50:13;;;;;;;6.88;3.53;;;11.50;99.90;;;;;;4834643;29;20137;-77
2023/09/24 03:52:42;;;;;;;4.15;3.00;;;11.20;99.90;;;;;;4805687;29;20066;-77
2023/09/24 03:55:08;;;;;;;4.97;3.17;;;11.20;99.90;;;;;;4806913;29;20133;-77
2023/09/24 03:57:34;;;;;;;6.25;3.50;;;11.20;99.90;;;;;;4845993;29;20058;-77
2023/09/24 04:00:00;;;;;;;6.00;3.38;;;10.00;99.90;;;;;;4803152;29;20034;-77
2023/09/24 04:02:26;;;;;;;6.05;2.97;;;12.20;99.90;;;;;;4812491;29;20416;-78
2023/09/24 04:04:52;;;;;;;7.05;3.47;;;11.20;99.90;;;;;;4796714;29;20050;-78
2023/09/24 04:07:19;;;;;;;3.92;2.95;;;11.20;99.90;;;;;;4819609;29;20046;-77
2023/09/24 04:09:45;;;;;;;6.15;3.30;;;11.20;99.90;;;;;;4800742;29;20066;-77
2023/09/24 04:12:13;;;;;;;4.10;3.63;;;11.20;99.90;;;;;;4844104;29;20439;-77
2023/09/24 04:14:39;;;;;;;5.43;4.03;;;11.20;99.90;;;;;;4817373;29;20118;-78
2023/09/24 04:17:06;;;;;;;4.20;3.80;;;11.20;99.90;;;;;;4810951;29;20892;-78
2023/09/24 04:19:32;;;;;;;8.23;4.20;;;11.10;99.90;;;;;;4822802;29;20111;-78
2023/09/24 04:21:59;;;;;;;11.00;3.58;;;12.90;99.90;;;;;;4817264;29;20053;-79
2023/09/24 04:24:25;;;;;;;5.32;3.55;;;11.10;99.90;;;;;;4833753;29;20548;-78
2023/09/24 04:26:54;;;;;;;6.57;3.50;;;11.10;99.90;;;;;;4800968;29;20050;-78
2023/09/24 04:29:20;;;;;;;6.00;3.58;;;12.40;99.90;;;;;;4801172;29;20150;-78
2023/09/24 04:31:46;;;;;;;5.80;3.83;;;11.10;99.90;;;;;;4830329;29;20141;-78
2023/09/24 04:34:13;;;;;;;4.55;3.38;;;11.00;99.90;;;;;;4832512;29;20050;-79
2023/09/24 04:36:42;;;;;;;8.93;4.00;;;11.00;99.90;;;;;;4829213;29;20495;-78
2023/09/24 04:39:12;;;;;;;8.32;4.07;;;11.00;99.90;;;;;;4817402;29;20114;-78
2023/09/24 04:41:40;;;;;;;5.75;3.80;;;11.00;99.90;;;;;;4817611;29;20043;-79
2023/09/24 04:44:08;;;;;;;6.03;3.65;;;11.50;99.90;;;;;;4837045;29;20441;-78
2023/09/24 04:46:35;;;;;;;6.63;3.75;;;11.80;99.90;;;;;;4832374;29;20046;-78
2023/09/24 04:49:08;;;;;;;5.47;3.78;;;11.00;99.90;;;;;;4829211;29;20543;-79
2023/09/24 04:51:34;;;;;;;9.57;3.97;;;11.00;99.90;;;;;;4803786;29;20146;-78
2023/09/24 04:54:00;;;;;;;9.43;3.90;;;11.00;99.90;;;;;;4833230;29;20060;-79
2023/09/24 04:56:27;;;;;;;4.72;3.47;;;11.00;99.90;;;;;;4833354;29;20083;-80
2023/09/24 04:58:53;;;;;;;7.75;4.43;;;10.90;99.90;;;;;;4824899;29;20057;-79
2023/09/24 05:01:19;;;;;;;5.82;4.28;;;10.90;99.90;;;;;;4831339;29;20054;-79
2023/09/24 05:03:47;;;;;;;5.25;4.10;;;10.90;99.90;;;;;;4808843;29;20042;-78
2023/09/24 05:06:13;;;;;;;9.65;4.35;;;10.90;99.90;;;;;;4802412;29;20499;-79
2023/09/24 05:08:39;;;;;;;9.13;4.55;;;10.90;99.90;;;;;;4800271;29;20053;-79
2023/09/24 05:11:04;;;;;;;9.70;4.47;;;10.80;99.90;;;;;;4798752;29;1109859;-79
2023/09/24 05:13:30;;;;;;;5.88;4.28;;;11.60;99.90;;;;;;4825010;29;20066;-78
2023/09/24 05:16:00;;;;;;;8.55;4.40;;;10.80;99.90;;;;;;4831923;29;20064;-79
2023/09/24 05:18:26;;;;;;;6.38;4.25;;;10.80;99.90;;;;;;4832454;29;20053;-79
2023/09/24 05:20:53;;;;;;;8.23;4.30;;;12.20;99.90;;;;;;4833094;29;20038;-80
2023/09/24 05:23:19;;;;;;;5.63;4.00;;;12.00;99.90;;;;;;4827565;29;20042;-79
2023/09/24 05:25:45;;;;;;;4.60;4.03;;;11.60;99.90;;;;;;4816587;29;20388;-78
2023/09/24 05:28:11;;;;;;;10.50;4.45;;;10.70;99.90;;;;;;4802267;29;20038;-78
2023/09/24 05:30:36;;;;;;;5.65;3.95;;;10.70;99.90;;;;;;4837985;29;20048;-78
2023/09/24 05:33:03;;;;;;;5.85;4.47;;;10.70;99.90;;;;;;4798460;29;20051;-78
2023/09/24 05:35:29;;;;;;;5.50;4.00;;;10.70;99.90;;;;;;4839248;29;20208;-79
2023/09/24 05:37:55;;;;;;;8.23;4.78;;;10.70;99.90;;;;;;4825762;29;20433;-78
2023/09/24 05:40:21;;;;;;;7.78;4.82;;;10.70;99.90;;;;;;4817549;29;20099;-79
2023/09/24 05:42:47;;;;;;;6.72;4.22;;;11.50;99.90;;;;;;4829049;29;20075;-78
2023/09/24 05:45:12;;;;;;;9.25;4.90;;;10.70;99.90;;;;;;4818195;29;20130;-80
2023/09/24 05:47:38;;;;;;;5.20;4.18;;;11.60;99.90;;;;;;4829303;29;20567;-78
2023/09/24 05:50:04;;;;;;;5.78;4.65;;;10.60;99.90;;;;;;4834464;29;20050;-78
2023/09/24 05:52:30;;;;;;;8.88;4.75;;;10.70;99.90;;;;;;4831580;29;20038;-79
2023/09/24 05:54:56;;;;;;;7.53;4.88;;;11.50;99.90;;;;;;4804153;29;20043;-79
2023/09/24 05:57:26;;;;;;;8.60;4.68;;;10.60;99.90;;;;;;4828057;29;20050;-78
2023/09/24 05:59:53;;;;;;;9.75;4.78;;;10.60;99.90;;;;;;4803675;29;20042;-79
2023/09/24 06:02:24;;;;;;;8.02;4.95;;;11.10;99.90;;;;;;4820642;29;20563;-79
2023/09/24 06:04:50;;;;;;;7.70;4.68;;;10.60;99.90;;;;;;4833929;29;20053;-79
2023/09/24 06:07:16;;;;;;;12.05;5.75;;;10.60;99.90;;;;;;4851348;29;20050;-80
2023/09/24 06:09:42;;;;;;;8.45;4.90;;;10.60;99.90;;;;;;4805678;29;20511;-79
2023/09/24 06:12:07;;;;;;;7.90;5.20;;;10.60;99.90;;;;;;4815200;29;20062;-78
2023/09/24 06:14:33;;;;;;;8.27;5.88;;;10.60;99.90;;;;;;4819983;29;20042;-79
2023/09/24 06:16:59;;;;;;;11.57;4.78;;;10.60;99.90;;;;;;4820707;29;20074;-79
2023/09/24 06:19:25;;;;;;;8.38;5.30;;;10.60;99.90;;;;;;4819967;29;20093;-79
2023/09/24 06:21:51;;;;;;;9.38;5.25;;;10.60;99.90;;;;;;4811802;29;20143;-78
2023/09/24 06:24:17;;;;;;;11.45;4.93;;;10.60;99.90;;;;;;4808796;29;20134;-78
2023/09/24 06:26:43;;;;;;;12.82;4.78;;;12.10;99.90;;;;;;4805183;29;20460;-78
2023/09/24 06:29:09;;;;;;;8.70;4.82;;;10.60;99.90;;;;;;4803044;29;20046;-78
2023/09/24 06:31:35;;;;;;;7.30;5.07;;;10.60;99.90;;;;;;4804908;29;20515;-78
2023/09/24 06:34:00;;;;;;;10.60;5.30;;;11.80;99.90;;;;;;4835191;29;20472;-79
2023/09/24 06:36:26;;;;;;;9.15;5.05;;;12.10;99.90;;;;;;4820159;29;20050;-78
2023/09/24 06:38:52;;;;;;;8.13;4.90;;;11.90;99.90;;;;;;4808558;29;20084;-78
2023/09/24 06:41:17;;;;;;;7.55;5.15;;;10.60;99.90;;;;;;4819851;29;20476;-78
2023/09/24 06:43:43;;;;;;;8.23;5.30;;;10.60;99.90;;;;;;4804302;29;20438;-79
2023/09/24 06:46:09;;;;;;;11.15;5.75;;;10.70;99.90;;;;;;4818400;29;20055;-78
2023/09/24 06:48:34;;;;;;;10.98;5.30;;;10.70;99.90;;;;;;4834488;29;20809;-78
2023/09/24 06:51:08;;;;;;;14.32;5.63;;;10.70;99.90;;;;;;4833715;29;20565;-78
2023/09/24 06:53:34;;;;;;;11.60;5.60;;;10.70;99.90;;;;;;4803043;29;20050;-78
2023/09/24 06:56:04;;;;;;;7.55;5.40;;;12.60;99.90;;;;;;4803891;29;20067;-78
2023/09/24 06:58:32;;;;;;;13.43;5.95;;;10.70;99.90;;;;;;4834170;29;20089;-79
2023/09/24 07:01:03;;;;;;;8.40;4.93;;;10.80;99.90;;;;;;4816585;29;20051;-79
2023/09/24 07:03:30;;;;;;;10.95;5.20;;;10.80;99.90;;;;;;4815554;29;20054;-80
2023/09/24 07:05:56;;;;;;;13.18;6.15;;;10.80;99.90;;;;;;4825653;29;20067;-80
2023/09/24 07:08:22;;;;;;;8.00;5.38;;;10.80;99.90;;;;;;4833326;29;20479;-79
2023/09/24 07:11:19;;;;;;;11.25;6.00;;;10.70;99.90;;;;;;4806104;29;20478;-79
2023/09/24 07:13:45;;;;;;;13.35;5.90;;;11.00;99.90;;;;;;4800393;29;20410;-79
2023/09/24 07:16:11;;;;;;;12.18;5.60;;;10.90;99.90;;;;;;4820122;29;20042;-79
2023/09/24 07:18:37;;;;;;;9.50;5.65;;;11.00;99.90;;;;;;4803993;29;20116;-80
2023/09/24 07:21:02;;;;;;;9.48;5.95;;;11.00;99.90;;;;;;4831828;29;20146;-79
2023/09/24 07:23:28;;;;;;;9.13;5.78;;;11.00;99.90;;;;;;4827172;29;20050;-80
2023/09/24 07:25:54;;;;;;;12.73;6.00;;;11.90;99.90;;;;;;4802949;29;20464;-80
2023/09/24 07:28:24;;;;;;;12.10;6.35;;;11.10;99.90;;;;;;4805116;29;20423;-81
2023/09/24 07:30:53;;;;;;;14.00;6.18;;;11.20;99.90;;;;;;4832599;29;20831;-81
2023/09/24 07:33:21;;;;;;;12.70;5.72;;;11.10;99.90;;;;;;4139326;29;10000732;-80
2023/09/24 07:35:47;;;;;;;12.20;6.30;;;12.10;99.90;;;;;;4830679;29;20054;-81
2023/09/24 07:38:13;;;;;;;8.43;5.45;;;11.20;99.90;;;;;;4798360;29;20503;-79
2023/09/24 07:40:39;;;;;;;10.60;5.95;;;11.20;99.90;;;;;;4831884;29;20051;-80
2023/09/24 07:43:08;;;;;;;13.35;5.75;;;11.30;99.90;;;;;;4801449;29;20780;-80
2023/09/24 07:45:34;;;;;;;9.57;6.13;;;12.60;99.90;;;;;;4815437;29;20062;-78
2023/09/24 07:48:00;;;;;;;10.52;5.30;;;11.30;99.90;;;;;;4828610;29;20703;-80
2023/09/24 07:50:27;;;;;;;12.82;5.88;;;11.50;99.90;;;;;;4803424;29;20053;-85
2023/09/24 07:53:03;;;;;;;9.90;5.80;;;11.50;99.90;;;;;;4826730;29;20054;-75
2023/09/24 07:55:29;;;;;;;10.57;5.57;;;10.80;99.90;;;;;;4839963;29;20045;-78
2023/09/24 07:58:20;;;;;;;9.15;5.45;;;13.40;99.90;;;;;;4835854;29;20047;-77
2023/09/24 08:01:09;;;;;;;14.77;5.95;;;11.70;99.90;;;;;;4825159;29;20042;-79
2023/09/24 08:03:35;;;;;;;7.72;5.57;;;11.70;99.90;;;;;;4832137;29;20449;-79
2023/09/24 08:06:06;;;;;;;9.02;5.80;;;12.30;99.90;;;;;;4809508;29;20071;-76
2023/09/24 08:08:36;;;;;;;9.90;5.55;;;11.80;99.90;;;;;;4819129;29;20046;-80
2023/09/24 08:11:04;;;;;;;12.60;5.00;;;12.30;99.90;;;;;;4819869;29;20046;-82
2023/09/24 08:13:38;;;;;;;9.27;4.93;;;11.90;99.90;;;;;;4850904;29;20125;-78
2023/09/24 08:16:08;;;;;;;7.47;5.00;;;12.00;99.90;;;;;;4823420;29;20435;-78
2023/09/24 08:18:34;;;;;;;8.75;4.97;;;12.00;99.90;;;;;;4801641;29;20057;-80
2023/09/24 08:21:04;;;;;;;11.60;5.35;;;10.90;99.90;;;;;;4821221;29;20058;-78
2023/09/24 08:23:31;;;;;;;8.05;5.00;;;12.10;99.90;;;;;;4830105;29;20127;-78
2023/09/24 08:26:10;;;;;;;7.22;4.40;;;13.30;99.90;;;;;;4833261;29;20050;-77
2023/09/24 08:28:35;;;;;;;9.95;4.95;;;13.20;99.90;;;;;;4817213;29;20065;-80
2023/09/24 08:31:09;;;;;;;7.63;4.55;;;12.20;99.90;;;;;;4830728;29;20046;-79
2023/09/24 08:33:34;;;;;;;13.40;5.10;;;12.30;99.90;;;;;;4825552;29;20038;-79
2023/09/24 08:36:07;;;;;;;10.32;4.53;;;12.40;99.90;;;;;;4842375;29;20038;-78
2023/09/24 08:38:33;;;;;;;6.95;4.40;;;12.40;99.90;;;;;;4830437;29;20107;-80
2023/09/24 08:40:58;;;;;;;8.77;4.32;;;12.50;99.90;;;;;;4827631;29;20046;-79
2023/09/24 08:43:27;;;;;;;9.48;4.70;;;13.30;99.90;;;;;;4798257;29;20050;-79
2023/09/24 08:45:53;;;;;;;9.73;4.47;;;12.60;99.90;;;;;;4813218;29;20053;-79
2023/09/24 08:48:20;;;;;;;8.88;4.65;;;12.90;99.90;;;;;;4826696;29;20042;-80
2023/09/24 08:50:47;;;;;;;15.85;4.97;;;12.70;99.90;;;;;;4825491;29;20141;-79
2023/09/24 08:53:15;;;;;;;8.98;3.83;;;12.70;99.90;;;;;;4829121;29;20064;-79
2023/09/24 08:55:43;;;;;;;14.05;4.75;;;12.80;99.90;;;;;;4823667;29;20101;-80
2023/09/24 08:58:09;;;;;;;13.45;4.75;;;13.50;99.90;;;;;;4813339;29;20219;-78
2023/09/24 09:00:36;;;;;;;7.53;4.00;;;12.90;99.90;;;;;;4813895;29;20140;-87
2023/09/24 09:03:05;;;;;;;12.32;3.53;;;12.90;99.90;;;;;;4817090;29;20045;-79
2023/09/24 09:05:35;;;;;;;7.45;3.50;;;13.00;99.90;;;;;;4800665;29;20141;-78
2023/09/24 09:08:03;;;;;;;6.32;2.92;;;13.10;99.90;;;;;;4835380;29;20103;-81
2023/09/24 09:10:32;;;;;;;7.25;3.42;;;13.10;99.90;;;;;;4829472;29;20452;-82
2023/09/24 09:13:17;;;;;;;7.75;3.08;;;13.20;99.90;;;;;;4822164;29;20043;-82
2023/09/24 09:15:45;;;;;;;7.25;2.90;;;13.30;99.90;;;;;;4823554;29;20054;-80
2023/09/24 09:18:25;;;;;;;7.53;3.10;;;13.40;99.90;;;;;;4800892;29;20121;-79
2023/09/24 09:20:59;;;;;;;5.93;2.53;;;13.50;99.90;;;;;;4842834;29;20054;-85
2023/09/24 09:23:37;;;;;;;8.07;3.37;;;13.60;99.90;;;;;;4823709;29;20082;-86
2023/09/24 09:26:03;;;;;;;6.05;2.80;;;13.60;99.90;;;;;;4839502;29;20039;-87
2023/09/24 09:28:31;;;;;;;4.68;2.50;;;14.60;99.90;;;;;;4798660;29;20056;-85
2023/09/24 09:31:01;;;;;;;11.45;3.05;;;13.70;99.90;;;;;;4811135;29;20435;-85
2023/09/24 09:33:36;;;;;;;6.25;2.88;;;13.80;99.90;;;;;;4800423;29;20081;-87
2023/09/24 09:36:03;;;;;;;6.65;2.58;;;13.90;99.90;;;;;;4822450;29;20119;-80
2023/09/24 09:38:29;;;;;;;8.90;2.78;;;13.90;99.90;;;;;;4824682;29;20058;-87
2023/09/24 09:40:57;;;;;;;7.03;2.60;;;13.90;99.90;;;;;;4798297;29;20518;-81
2023/09/24 09:43:27;;;;;;;10.00;2.55;;;14.00;99.90;;;;;;4791119;29;20054;-89
2023/09/24 09:45:55;;;;;;;7.88;2.25;;;14.00;99.90;;;;;;4818642;29;20136;-82
2023/09/24 09:48:32;;;;;;;5.25;2.30;;;14.10;99.90;;;;;;4823380;29;20494;-83
2023/09/24 09:51:08;;;;;;;7.57;2.25;;;14.70;99.90;;;;;;4799672;29;20392;-85
2023/09/24 09:53:35;;;;;;;6.97;2.22;;;14.20;99.90;;;;;;4799155;29;20046;-81
2023/09/24 09:56:04;;;;;;;4.03;1.77;;;14.40;99.90;;;;;;4821453;29;20253;-80
2023/09/24 09:58:33;;;;;;;7.10;2.17;;;14.40;99.90;;;;;;4822053;29;20053;-80
2023/09/24 10:01:00;;;;;;;4.18;1.60;;;14.50;99.90;;;;;;4797870;29;20066;-83
2023/09/24 10:03:28;;;;;;;7.93;2.33;;;14.50;99.90;;;;;;4830928;29;20050;-81
2023/09/24 10:05:56;;;;;;;7.88;1.90;;;14.50;99.90;;;;;;4797041;29;20054;-78
2023/09/24 10:08:45;;;;;;;5.50;1.58;;;14.60;99.90;;;;;;4829552;29;20050;-80
2023/09/24 10:11:32;;;;;;;6.30;1.73;;;14.60;99.90;;;;;;4825714;29;20090;-84
2023/09/24 10:13:59;;;;;;;6.72;2.05;;;14.70;99.90;;;;;;4808198;29;20085;-80
2023/09/24 10:16:25;;;;;;;7.63;2.28;;;14.70;99.90;;;;;;4825696;29;20165;-81
2023/09/24 10:19:06;;;;;;;5.05;1.58;;;14.80;99.90;;;;;;4826137;29;20551;-82
2023/09/24 10:21:35;;;;;;;4.75;1.55;;;14.90;99.90;;;;;;4810659;29;20117;-79
2023/09/24 10:24:10;;;;;;;3.13;1.33;;;14.90;99.90;;;;;;4810340;29;20070;-79
2023/09/24 10:26:54;;;;;;;10.57;1.55;;;14.90;99.90;;;;;;4832067;29;20054;-78
2023/09/24 10:29:46;;;;;;;7.47;1.58;;;14.90;99.90;;;;;;4828359;29;20054;-83
2023/09/24 10:32:12;;;;;;;7.50;1.65;;;15.00;99.90;;;;;;4824138;29;20043;-78
2023/09/24 10:34:57;;;;;;;7.28;1.50;;;15.00;99.90;;;;;;4844724;29;20042;-80
2023/09/24 10:37:38;;;;;;;4.70;1.50;;;15.10;99.90;;;;;;4815612;29;20111;-80
2023/09/24 10:40:09;;;;;;;4.85;1.65;;;15.20;99.90;;;;;;4829873;29;20042;-82
2023/09/24 10:42:43;;;;;;;4.50;1.48;;;15.20;99.90;;;;;;4809356;29;20047;-80
2023/09/24 10:45:10;;;;;;;6.70;1.88;;;15.30;99.90;;;;;;4813551;29;20054;-81
2023/09/24 10:47:41;;;;;;;6.53;2.15;;;15.30;99.90;;;;;;4827004;29;20115;-84
2023/09/24 10:50:12;;;;;;;5.32;1.52;;;15.40;99.90;;;;;;4827300;29;20038;-83
2023/09/24 10:52:55;;;;;;;6.00;1.77;;;15.50;99.90;;;;;;4796816;29;20070;-80
2023/09/24 10:55:39;;;;;;;4.97;1.90;;;15.50;99.90;;;;;;4824213;29;20051;-81
2023/09/24 10:58:14;;;;;;;2.72;1.55;;;15.60;99.90;;;;;;4826960;29;20056;-80
2023/09/24 11:00:45;;;;;;;8.98;2.78;;;15.60;99.90;;;;;;4810970;29;20086;-81
2023/09/24 11:03:14;;;;;;;4.90;1.35;;;15.60;99.90;;;;;;4841310;29;20051;-81
2023/09/24 11:05:39;;;;;;;4.60;1.23;;;15.70;99.90;;;;;;4829466;29;20046;-81
2023/09/24 11:08:05;;;;;;;6.13;1.50;;;15.70;99.90;;;;;;4818791;29;20390;-80
2023/09/24 11:10:31;;;;;;;6.10;1.35;;;15.80;99.90;;;;;;4849618;29;20111;-79
2023/09/24 11:13:00;;;;;;;5.45;1.70;;;15.90;99.90;;;;;;4825262;29;20046;-80
2023/09/24 11:15:30;;;;;;;5.32;1.30;;;16.00;99.90;;;;;;4825593;29;20420;-80
2023/09/24 11:17:57;;;;;;;6.03;1.20;;;16.10;99.90;;;;;;4826835;29;20046;-81
2023/09/24 11:20:24;;;;;;;8.30;1.70;;;16.10;99.90;;;;;;4797250;29;20481;-83
2023/09/24 11:23:09;;;;;;;5.18;1.50;;;16.20;99.90;;;;;;4818438;29;20144;-80
2023/09/24 11:25:34;;;;;;;;;;;16.30;99.90;;;;;;4820741;29;20931;-80
2023/09/24 11:28:02;;;;;;;3.47;0.98;;;16.40;99.90;;;;;;4832279;29;19933;-81
2023/09/24 11:30:42;;;;;;;3.55;1.33;;;16.50;99.90;;;;;;4794036;29;20053;-81
2023/09/24 11:33:21;;;;;;;3.60;1.30;;;16.60;99.90;;;;;;4840258;29;20050;-81
2023/09/24 11:35:48;;;;;;;2.97;1.40;;;16.70;99.90;;;;;;4826153;29;20043;-81
2023/09/24 11:38:32;;;;;;;7.20;2.10;;;16.70;99.90;;;;;;4827373;29;20070;-82
2023/09/24 11:41:24;;;;;;;;;;;16.80;99.90;;;;;;4826557;29;20488;-82
2023/09/24 11:43:57;;;;;;;4.68;1.63;;;16.80;99.90;;;;;;4804779;29;19932;-81
2023/09/24 11:46:28;;;;;;;4.10;1.67;;;16.90;99.90;;;;;;4796048;29;20069;-82
2023/09/24 11:48:56;;;;;;;3.85;1.38;;;16.90;99.90;;;;;;4819117;29;20126;-82
2023/09/24 11:51:22;;;;;;;2.13;0.93;;;16.90;99.90;;;;;;4814107;29;20054;-83
2023/09/24 11:53:48;;;;;;;5.45;1.23;;;16.90;99.90;;;;;;4825727;29;20054;-83
2023/09/24 11:56:13;;;;;;;4.00;1.45;;;17.00;99.90;;;;;;4827805;29;20086;-83
2023/09/24 11:58:39;;;;;;;4.25;1.27;;;17.00;99.90;;;;;;4795904;29;20448;-81
2023/09/24 12:01:08;;;;;;;3.60;1.30;;;17.00;99.90;;;;;;4826406;29;20053;-81
2023/09/24 12:03:34;;;;;;;3.45;1.35;;;17.00;99.90;;;;;;4819336;29;20399;-80
2023/09/24 12:05:59;;;;;;;5.55;1.63;;;17.10;99.90;;;;;;4811444;29;20055;-82
2023/09/24 12:08:25;;;;;;;3.13;0.80;;;17.20;99.90;;;;;;4813810;29;20055;-80
2023/09/24 12:10:51;;;;;;;5.63;1.25;;;17.20;99.90;;;;;;4840528;29;20062;-82
2023/09/24 12:13:18;;;;;;;2.88;1.30;;;17.50;99.90;;;;;;4812079;29;20047;-81
2023/09/24 12:15:45;;;;;;;3.95;1.00;;;17.40;99.90;;;;;;4796423;29;20055;-83
2023/09/24 12:18:11;;;;;;;4.85;1.10;;;17.40;99.90;;;;;;4838705;29;20095;-83
2023/09/24 12:20:41;;;;;;;2.90;1.15;;;17.50;99.90;;;;;;4816560;29;20047;-84
2023/09/24 12:23:07;;;;;;;5.43;1.27;;;17.60;99.90;;;;;;4826958;29;20053;-82
2023/09/24 12:25:37;;;;;;;3.78;1.08;;;17.60;99.90;;;;;;4820417;29;20468;-81
2023/09/24 12:28:04;;;;;;;2.17;1.10;;;17.70;99.90;;;;;;4811287;29;20423;-80
2023/09/24 12:30:30;;;;;;;3.30;1.13;;;17.80;99.90;;;;;;4796553;29;20380;-78
2023/09/24 12:32:56;;;;;;;3.55;1.05;;;17.80;99.90;;;;;;4826946;29;20038;-79
2023/09/24 12:35:21;;;;;;;3.70;1.17;;;17.10;99.90;;;;;;4831275;29;20050;-81
2023/09/24 12:37:47;;;;;;;7.03;1.30;;;18.00;99.90;;;;;;4817086;29;20153;-84
2023/09/24 12:40:13;;;;;;;2.58;1.23;;;18.00;99.90;;;;;;4833921;29;20069;-80
2023/09/24 12:42:40;;;;;;;5.75;1.05;;;18.10;99.90;;;;;;4826721;29;20054;-78
2023/09/24 12:45:08;;;;;;;6.55;1.38;;;16.80;99.90;;;;;;4819435;29;20456;-81
2023/09/24 12:47:34;;;;;;;2.78;1.20;;;18.20;99.90;;;;;;4802019;29;20078;-78
2023/09/24 12:50:03;;;;;;;3.67;1.00;;;18.20;99.90;;;;;;4831638;29;20388;-77
2023/09/24 12:52:37;;;;;;;3.97;1.23;;;18.50;99.90;;;;;;4822688;29;20050;-78
2023/09/24 12:55:06;;;;;;;3.88;1.33;;;18.20;99.90;;;;;;4823735;29;20078;-79